Time;durP1;ratioP1;P1;durP2;ratioP2;P2;SDS_P1;SDS_P2;PMS_P1;PMS_P2;Temp;Humidity;BMP_temperature;BMP_pressure;BME280_temperature;BME280_humidity;BME280_pressure;Samples;Min_cycle;Max_cycle;Signal;HPM_P1;HPM_P2
2022/03/20 00:00:36;;;;;;;30.63;18.75;;;;;;;;;;4688748;28;9999720;-69
2022/03/20 00:03:07;;;;;;;33.17;19.42;;;;;;;;;;5037304;28;20033;-69
2022/03/20 00:05:34;;;;;;;34.13;19.40;;;;;;;;;;5045456;28;20029;-69
2022/03/20 00:08:00;;;;;;;31.35;19.35;;;;;;;;;;5041745;28;20033;-69
2022/03/20 00:10:27;;;;;;;32.70;19.08;;;;;;;;;;5039794;28;20066;-68
2022/03/20 00:12:53;;;;;;;31.95;18.55;;;;;;;;;;5046528;28;20362;-69
2022/03/20 00:15:20;;;;;;;32.95;18.33;;;;;;;;;;5035698;28;20633;-69
2022/03/20 00:17:46;;;;;;;35.95;19.63;;;;;;;;;;5040669;28;20479;-69
2022/03/20 00:20:12;;;;;;;31.50;18.88;;;;;;;;;;5036458;28;20110;-69
2022/03/20 00:22:38;;;;;;;36.55;19.80;;;;;;;;;;5048497;28;20547;-69
2022/03/20 00:25:04;;;;;;;36.25;19.20;;;;;;;;;;5038567;28;20076;-69
2022/03/20 00:27:30;;;;;;;35.80;19.15;;;;;;;;;;5043448;28;20488;-69
2022/03/20 00:29:56;;;;;;;34.35;19.80;;;;;;;;;;5046849;28;20045;-69
2022/03/20 00:32:22;;;;;;;30.45;18.80;;;;;;;;;;5042828;28;20175;-69
2022/03/20 00:34:49;;;;;;;31.30;19.23;;;;;;;;;;5026427;28;20540;-69
2022/03/20 00:37:15;;;;;;;33.25;19.90;;;;;;;;;;5045053;28;20094;-69
2022/03/20 00:39:41;;;;;;;31.02;18.70;;;;;;;;;;5035676;28;20397;-69
2022/03/20 00:42:07;;;;;;;33.45;19.33;;;;;;;;;;5041350;28;20033;-68
2022/03/20 00:44:33;;;;;;;30.95;18.70;;;;;;;;;;5033383;28;20025;-69
2022/03/20 00:46:59;;;;;;;33.25;19.52;;;;;;;;;;5045702;28;20155;-68
2022/03/20 00:49:25;;;;;;;34.92;19.00;;;;;;;;;;5036740;28;20133;-69
2022/03/20 00:51:51;;;;;;;36.72;19.92;;;;;;;;;;5036696;28;20117;-69
2022/03/20 00:54:17;;;;;;;32.33;19.25;;;;;;;;;;5033055;28;20485;-69
2022/03/20 00:56:43;;;;;;;31.02;18.85;;;;;;;;;;5039656;28;20060;-68
2022/03/20 00:59:09;;;;;;;34.25;19.25;;;;;;;;;;5043858;28;20084;-69
2022/03/20 01:01:35;;;;;;;29.17;17.92;;;;;;;;;;5044524;28;20036;-68
2022/03/20 01:04:01;;;;;;;34.05;19.17;;;;;;;;;;5040053;28;20124;-69
2022/03/20 01:06:27;;;;;;;36.58;19.17;;;;;;;;;;5047475;28;20532;-69
2022/03/20 01:08:53;;;;;;;31.10;19.85;;;;;;;;;;5047856;28;20068;-69
2022/03/20 01:11:19;;;;;;;33.63;19.63;;;;;;;;;;5040317;28;20503;-69
2022/03/20 01:13:45;;;;;;;36.55;19.17;;;;;;;;;;5032325;28;20504;-69
2022/03/20 01:16:12;;;;;;;33.83;19.75;;;;;;;;;;5038425;28;20163;-69
2022/03/20 01:18:38;;;;;;;32.50;19.17;;;;;;;;;;5042867;28;20040;-69
2022/03/20 01:21:06;;;;;;;31.48;19.30;;;;;;;;;;5048075;28;20111;-68
2022/03/20 01:23:32;;;;;;;36.83;18.95;;;;;;;;;;5043717;28;20079;-68
2022/03/20 01:25:58;;;;;;;32.67;19.15;;;;;;;;;;5049342;28;20033;-69
2022/03/20 01:28:24;;;;;;;34.25;19.48;;;;;;;;;;5044752;28;20045;-68
2022/03/20 01:30:50;;;;;;;30.55;19.42;;;;;;;;;;5040046;28;20041;-69
2022/03/20 01:33:17;;;;;;;34.13;18.98;;;;;;;;;;5039110;28;20037;-69
2022/03/20 01:35:43;;;;;;;32.65;19.08;;;;;;;;;;5027921;28;20048;-69
2022/03/20 01:38:10;;;;;;;32.42;18.73;;;;;;;;;;5034963;28;20395;-69
2022/03/20 01:40:36;;;;;;;33.22;19.48;;;;;;;;;;5042996;28;20032;-68
2022/03/20 01:43:03;;;;;;;33.80;18.58;;;;;;;;;;5042639;28;20038;-68
2022/03/20 01:45:30;;;;;;;35.55;20.23;;;;;;;;;;5042775;28;20090;-69
2022/03/20 01:47:56;;;;;;;33.25;19.73;;;;;;;;;;5043359;28;20035;-68
2022/03/20 01:50:27;;;;;;;36.38;19.13;;;;;;;;;;5025268;28;20032;-68
2022/03/20 01:52:54;;;;;;;36.83;19.15;;;;;;;;;;5030314;28;20044;-68
2022/03/20 01:55:21;;;;;;;33.53;19.55;;;;;;;;;;5046602;28;20434;-68
2022/03/20 01:57:49;;;;;;;37.63;18.73;;;;;;;;;;5044912;28;20025;-68
2022/03/20 02:00:16;;;;;;;28.85;18.98;;;;;;;;;;5045892;28;20045;-68
2022/03/20 02:02:42;;;;;;;32.58;20.02;;;;;;;;;;5041059;28;20037;-68
2022/03/20 02:05:09;;;;;;;34.35;19.13;;;;;;;;;;5044710;28;20076;-69
2022/03/20 02:07:35;;;;;;;31.55;19.05;;;;;;;;;;5046627;28;20024;-68
2022/03/20 02:10:02;;;;;;;33.92;20.15;;;;;;;;;;5050237;28;20033;-68
2022/03/20 02:12:29;;;;;;;35.15;19.30;;;;;;;;;;5047188;28;20029;-69
2022/03/20 02:14:56;;;;;;;34.20;19.45;;;;;;;;;;5042218;28;20022;-69
2022/03/20 02:17:22;;;;;;;34.58;19.00;;;;;;;;;;5040892;28;20120;-69
2022/03/20 02:19:48;;;;;;;33.38;19.60;;;;;;;;;;5038889;28;20116;-69
2022/03/20 02:22:14;;;;;;;36.03;20.05;;;;;;;;;;5038173;28;20083;-69
2022/03/20 02:24:41;;;;;;;33.22;19.42;;;;;;;;;;5042664;28;20053;-69
2022/03/20 02:27:17;;;;;;;33.92;18.98;;;;;;;;;;5048090;28;20021;-69
2022/03/20 02:29:49;;;;;;;34.03;18.83;;;;;;;;;;5047837;28;20517;-69
2022/03/20 02:32:17;;;;;;;32.20;18.80;;;;;;;;;;5033108;28;20681;-69
2022/03/20 02:34:47;;;;;;;34.88;20.25;;;;;;;;;;5037321;28;20141;-68
2022/03/20 02:37:13;;;;;;;35.10;20.10;;;;;;;;;;5044604;28;20034;-68
2022/03/20 02:39:40;;;;;;;35.72;19.67;;;;;;;;;;5043271;28;20128;-68
2022/03/20 02:42:07;;;;;;;33.72;18.77;;;;;;;;;;5043025;28;20258;-68
2022/03/20 02:44:53;;;;;;;34.38;20.00;;;;;;;;;;5034725;28;20025;-68
2022/03/20 02:47:25;;;;;;;34.13;20.20;;;;;;;;;;5046928;28;20040;-68
2022/03/20 02:49:53;;;;;;;32.13;19.00;;;;;;;;;;5042915;28;20037;-68
2022/03/20 02:52:20;;;;;;;34.22;19.80;;;;;;;;;;5042124;28;20037;-69
2022/03/20 02:54:46;;;;;;;37.97;20.35;;;;;;;;;;5042860;28;20025;-68
2022/03/20 02:57:12;;;;;;;36.00;19.50;;;;;;;;;;5041315;28;20041;-68
2022/03/20 02:59:38;;;;;;;34.85;19.98;;;;;;;;;;5031497;28;20057;-68
2022/03/20 03:02:04;;;;;;;33.25;19.70;;;;;;;;;;5048574;28;20515;-68
2022/03/20 03:04:30;;;;;;;33.63;19.83;;;;;;;;;;5037783;28;20318;-68
2022/03/20 03:07:01;;;;;;;32.63;19.38;;;;;;;;;;5040552;28;20085;-68
2022/03/20 03:12:12;;;;;;;36.55;19.77;;;;;;;;;;5049872;28;20047;-68
2022/03/20 03:17:27;;;;;;;35.40;19.27;;;;;;;;;;5041423;28;20147;-68
2022/03/20 03:19:54;;;;;;;42.38;19.77;;;;;;;;;;5044712;28;20115;-68
2022/03/20 03:22:20;;;;;;;36.83;20.17;;;;;;;;;;5043827;28;20052;-68
2022/03/20 03:24:46;;;;;;;33.28;18.90;;;;;;;;;;5040552;28;20580;-68
2022/03/20 03:27:12;;;;;;;36.85;19.42;;;;;;;;;;5048473;28;20031;-68
2022/03/20 03:29:38;;;;;;;33.08;20.02;;;;;;;;;;5044639;28;20040;-68
2022/03/20 03:32:05;;;;;;;34.67;19.58;;;;;;;;;;5045348;28;20036;-68
2022/03/20 03:37:20;;;;;;;34.30;19.02;;;;;;;;;;5042868;28;20122;-68
2022/03/20 03:39:46;;;;;;;34.63;19.33;;;;;;;;;;5049017;28;20040;-68
2022/03/20 03:42:12;;;;;;;35.13;19.33;;;;;;;;;;5050274;28;20025;-69
2022/03/20 03:44:39;;;;;;;34.90;19.88;;;;;;;;;;5040490;28;20025;-68
2022/03/20 03:47:05;;;;;;;32.78;19.20;;;;;;;;;;5055793;28;20097;-68
2022/03/20 03:49:33;;;;;;;32.88;19.38;;;;;;;;;;5031801;28;20048;-68
2022/03/20 03:51:59;;;;;;;33.85;20.00;;;;;;;;;;5042238;28;20029;-68
2022/03/20 03:54:25;;;;;;;36.17;19.48;;;;;;;;;;5041783;28;20475;-68
2022/03/20 03:56:51;;;;;;;32.65;19.83;;;;;;;;;;5061411;28;20036;-68
2022/03/20 03:59:17;;;;;;;39.78;20.20;;;;;;;;;;5042783;28;20113;-68
2022/03/20 04:01:43;;;;;;;34.28;19.42;;;;;;;;;;5032694;28;20037;-68
2022/03/20 04:04:09;;;;;;;34.67;19.58;;;;;;;;;;5032244;28;20035;-68
2022/03/20 04:06:35;;;;;;;34.20;19.23;;;;;;;;;;5043507;28;20028;-68
2022/03/20 04:09:01;;;;;;;39.28;20.30;;;;;;;;;;5038409;28;20460;-68
2022/03/20 04:11:27;;;;;;;33.30;19.25;;;;;;;;;;5051704;28;20028;-68
2022/03/20 04:13:53;;;;;;;38.47;21.25;;;;;;;;;;5033889;28;21072;-68
2022/03/20 04:16:19;;;;;;;35.72;20.48;;;;;;;;;;5038193;28;20025;-68
2022/03/20 04:18:45;;;;;;;38.83;20.02;;;;;;;;;;5045251;28;20102;-68
2022/03/20 04:21:11;;;;;;;37.35;19.95;;;;;;;;;;5042836;28;20554;-68
2022/03/20 04:23:48;;;;;;;34.47;20.15;;;;;;;;;;5031205;28;20057;-68
2022/03/20 04:26:17;;;;;;;33.67;19.55;;;;;;;;;;5047050;28;20392;-68
2022/03/20 04:28:44;;;;;;;36.97;19.75;;;;;;;;;;5036754;28;20049;-68
2022/03/20 04:31:15;;;;;;;33.10;19.58;;;;;;;;;;5025490;28;20037;-68
2022/03/20 04:33:41;;;;;;;36.90;20.35;;;;;;;;;;5036359;28;20507;-68
2022/03/20 04:36:09;;;;;;;35.85;20.92;;;;;;;;;;5060639;28;20036;-68
2022/03/20 04:38:35;;;;;;;36.45;20.98;;;;;;;;;;5046959;28;20035;-68
2022/03/20 04:41:01;;;;;;;39.53;21.08;;;;;;;;;;5035152;28;20038;-68
2022/03/20 04:43:27;;;;;;;37.72;21.60;;;;;;;;;;5040407;28;20140;-68
2022/03/20 04:45:54;;;;;;;38.83;21.25;;;;;;;;;;5051635;28;20472;-68
2022/03/20 04:59:20;;;;;;;35.03;20.98;;;;;;;;;;5040560;28;20047;-68
2022/03/20 05:01:46;;;;;;;34.65;20.73;;;;;;;;;;5045937;28;20179;-68
2022/03/20 05:04:13;;;;;;;40.53;21.52;;;;;;;;;;5053455;28;20026;-68
2022/03/20 05:06:39;;;;;;;39.88;21.10;;;;;;;;;;5036921;28;20040;-68
2022/03/20 05:14:35;;;;;;;38.58;21.63;;;;;;;;;;5029283;28;20056;-68
2022/03/20 05:17:03;;;;;;;36.85;21.50;;;;;;;;;;5038518;28;20469;-69
2022/03/20 05:19:29;;;;;;;38.85;22.63;;;;;;;;;;5029675;28;20033;-68
2022/03/20 05:21:56;;;;;;;39.28;22.15;;;;;;;;;;5045958;28;20041;-68
2022/03/20 05:24:22;;;;;;;35.15;20.75;;;;;;;;;;5031622;28;20481;-68
2022/03/20 05:26:48;;;;;;;39.80;22.77;;;;;;;;;;5040611;28;20107;-68
2022/03/20 05:29:14;;;;;;;35.95;21.75;;;;;;;;;;5043814;28;20513;-68
2022/03/20 05:31:40;;;;;;;40.67;22.85;;;;;;;;;;5037043;28;20025;-68
2022/03/20 05:34:06;;;;;;;39.63;21.98;;;;;;;;;;5039093;28;20039;-68
2022/03/20 05:36:32;;;;;;;39.70;22.75;;;;;;;;;;5033485;28;20121;-68
2022/03/20 05:39:01;;;;;;;35.45;21.58;;;;;;;;;;5031361;28;20030;-68
2022/03/20 05:41:47;;;;;;;40.22;22.92;;;;;;;;;;5032666;28;20082;-68
2022/03/20 05:44:17;;;;;;;40.45;22.75;;;;;;;;;;5046084;28;20492;-68
2022/03/20 05:46:48;;;;;;;40.72;22.85;;;;;;;;;;5050139;28;20021;-68
2022/03/20 05:49:15;;;;;;;36.83;20.98;;;;;;;;;;5036300;28;20025;-68
2022/03/20 05:51:41;;;;;;;37.33;21.50;;;;;;;;;;5064167;28;20123;-68
2022/03/20 05:54:07;;;;;;;37.28;22.55;;;;;;;;;;5046629;28;20056;-68
2022/03/20 05:59:18;;;;;;;36.97;20.83;;;;;;;;;;5041450;28;20048;-68
2022/03/20 06:01:44;;;;;;;37.13;21.08;;;;;;;;;;5054339;28;20032;-68
2022/03/20 06:04:10;;;;;;;37.58;21.85;;;;;;;;;;5048955;28;20233;-68
2022/03/20 06:06:36;;;;;;;37.30;21.80;;;;;;;;;;5048939;28;20095;-69
2022/03/20 06:09:05;;;;;;;37.00;21.58;;;;;;;;;;5056768;28;20032;-68
2022/03/20 06:11:35;;;;;;;38.05;22.35;;;;;;;;;;5043268;28;20121;-68
2022/03/20 06:14:04;;;;;;;38.25;22.00;;;;;;;;;;5038232;28;20037;-68
2022/03/20 06:16:30;;;;;;;41.45;22.58;;;;;;;;;;5046844;28;20028;-68
2022/03/20 06:18:57;;;;;;;37.00;22.25;;;;;;;;;;5060373;28;20041;-68
2022/03/20 06:21:23;;;;;;;40.30;22.73;;;;;;;;;;5046010;28;20128;-68
2022/03/20 06:23:49;;;;;;;39.80;21.88;;;;;;;;;;5046816;28;20037;-68
2022/03/20 06:26:17;;;;;;;39.50;22.00;;;;;;;;;;5051631;28;20271;-68
2022/03/20 06:28:43;;;;;;;36.97;22.15;;;;;;;;;;5040383;28;20061;-68
2022/03/20 06:31:12;;;;;;;39.22;22.67;;;;;;;;;;5039658;28;20029;-68
2022/03/20 06:33:38;;;;;;;36.78;22.05;;;;;;;;;;5046595;28;20032;-68
2022/03/20 06:36:04;;;;;;;41.20;22.88;;;;;;;;;;5068452;28;20040;-68
2022/03/20 06:38:31;;;;;;;37.53;22.58;;;;;;;;;;5035787;28;20738;-68
2022/03/20 06:40:57;;;;;;;41.42;23.48;;;;;;;;;;5038477;28;20037;-68
2022/03/20 06:43:27;;;;;;;38.40;22.17;;;;;;;;;;5035852;28;20044;-68
2022/03/20 06:45:54;;;;;;;39.00;22.90;;;;;;;;;;5035049;28;20141;-68
2022/03/20 06:48:20;;;;;;;38.53;22.65;;;;;;;;;;5042899;28;20496;-68
2022/03/20 06:50:46;;;;;;;42.80;21.80;;;;;;;;;;5041333;28;20024;-68
2022/03/20 06:53:12;;;;;;;44.42;23.40;;;;;;;;;;5033443;28;20029;-68
2022/03/20 06:55:38;;;;;;;37.88;22.38;;;;;;;;;;5029146;28;20037;-68
2022/03/20 06:58:04;;;;;;;36.20;21.35;;;;;;;;;;5046926;28;20036;-68
2022/03/20 07:00:31;;;;;;;38.90;23.10;;;;;;;;;;5041492;28;20566;-68
2022/03/20 07:02:58;;;;;;;41.03;22.55;;;;;;;;;;5037767;28;20541;-68
2022/03/20 07:05:24;;;;;;;43.00;22.35;;;;;;;;;;5044152;28;20033;-68
2022/03/20 07:07:50;;;;;;;36.97;21.48;;;;;;;;;;5031190;28;20098;-68
2022/03/20 07:10:20;;;;;;;38.78;22.33;;;;;;;;;;5029658;28;20033;-68
2022/03/20 07:12:46;;;;;;;36.75;22.08;;;;;;;;;;5039475;28;20120;-68
2022/03/20 07:15:12;;;;;;;42.65;23.95;;;;;;;;;;5029259;28;20020;-68
2022/03/20 07:17:40;;;;;;;37.40;22.70;;;;;;;;;;5031381;28;20029;-68
2022/03/20 07:20:09;;;;;;;39.55;23.30;;;;;;;;;;5037405;28;20511;-68
2022/03/20 07:22:35;;;;;;;43.95;24.15;;;;;;;;;;5031460;28;20205;-68
2022/03/20 07:29:29;;;;;;;41.17;23.27;;;;;;;;;;5035449;28;20087;-68
2022/03/20 07:30:32;;;;;;;39.45;23.35;;;;;;;;;;5032971;28;20192;-70
2022/03/20 07:32:58;;;;;;;44.63;25.20;;;;;;;;;;5039429;28;20205;-67
2022/03/20 07:35:24;;;;;;;37.53;22.65;;;;;;;;;;5031998;28;20044;-68
2022/03/20 07:37:51;;;;;;;43.22;23.08;;;;;;;;;;5028059;28;20063;-68
2022/03/20 07:40:17;;;;;;;38.63;23.63;;;;;;;;;;5041879;28;20021;-68
2022/03/20 07:42:43;;;;;;;39.05;23.42;;;;;;;;;;5044887;28;20480;-68
2022/03/20 07:45:09;;;;;;;40.25;23.67;;;;;;;;;;4684694;28;10000515;-69
2022/03/20 07:47:35;;;;;;;39.38;23.88;;;;;;;;;;5024432;28;22466;-69
2022/03/20 07:50:03;;;;;;;39.90;24.08;;;;;;;;;;5038501;28;20545;-69
2022/03/20 07:52:29;;;;;;;43.17;24.17;;;;;;;;;;5048786;28;20412;-69
2022/03/20 07:54:55;;;;;;;39.50;24.95;;;;;;;;;;5052455;28;20037;-68
2022/03/20 07:57:21;;;;;;;41.88;24.52;;;;;;;;;;5045239;28;20083;-68
2022/03/20 07:59:47;;;;;;;41.13;24.15;;;;;;;;;;5041062;28;20041;-68
2022/03/20 08:02:13;;;;;;;37.63;23.38;;;;;;;;;;5042681;28;20028;-68
2022/03/20 08:04:40;;;;;;;41.15;23.65;;;;;;;;;;5031764;28;20029;-68
2022/03/20 08:07:06;;;;;;;37.88;23.15;;;;;;;;;;5037316;28;20257;-68
2022/03/20 08:09:33;;;;;;;39.65;24.45;;;;;;;;;;5051319;28;20440;-67
2022/03/20 08:12:00;;;;;;;39.08;23.38;;;;;;;;;;5036508;28;20028;-68
2022/03/20 08:14:26;;;;;;;37.80;23.27;;;;;;;;;;5033506;28;20399;-68
2022/03/20 08:16:52;;;;;;;40.13;22.67;;;;;;;;;;5042167;28;20036;-68
2022/03/20 08:19:19;;;;;;;38.83;23.45;;;;;;;;;;5046327;28;20030;-68
2022/03/20 08:21:48;;;;;;;39.35;24.70;;;;;;;;;;5038774;28;20404;-68
2022/03/20 08:24:14;;;;;;;39.03;23.65;;;;;;;;;;5047587;28;20063;-68
2022/03/20 08:26:40;;;;;;;42.83;23.08;;;;;;;;;;5056383;28;20083;-68
2022/03/20 08:29:12;;;;;;;38.67;23.58;;;;;;;;;;5032800;28;20127;-68
2022/03/20 08:31:43;;;;;;;37.60;23.58;;;;;;;;;;5044238;28;20033;-68
2022/03/20 08:34:10;;;;;;;46.22;25.70;;;;;;;;;;5036454;28;20033;-68
2022/03/20 08:36:35;;;;;;;39.22;23.98;;;;;;;;;;5032189;28;20480;-68
2022/03/20 08:39:02;;;;;;;39.70;24.10;;;;;;;;;;5044359;28;20032;-68
2022/03/20 08:41:28;;;;;;;43.95;24.35;;;;;;;;;;5028647;28;20033;-68
2022/03/20 08:43:54;;;;;;;39.05;23.05;;;;;;;;;;5027609;28;20029;-69
2022/03/20 08:46:20;;;;;;;40.80;23.83;;;;;;;;;;5036696;28;20177;-69
2022/03/20 08:48:46;;;;;;;40.03;24.48;;;7.50;93.60;;;;;;5034649;28;20365;-69
2022/03/20 08:51:11;;;;;;;40.03;24.23;;;7.60;80.70;;;;;;5031548;28;20112;-69
2022/03/20 08:53:39;;;;;;;43.65;23.98;;;7.70;79.60;;;;;;5031750;28;20424;-68
2022/03/20 08:56:05;;;;;;;45.22;26.30;;;7.80;79.60;;;;;;5039113;28;20040;-69
2022/03/20 08:58:31;;;;;;;40.13;24.75;;;7.80;79.60;;;;;;5048085;28;20480;-69
2022/03/20 09:00:57;;;;;;;44.60;25.23;;;7.80;78.50;;;;;;5047949;28;20404;-68
2022/03/20 09:03:24;;;;;;;38.20;23.88;;;7.90;79.40;;;;;;5065111;28;20094;-69
2022/03/20 09:05:50;;;;;;;38.83;24.33;;;7.90;79.10;;;;;;5044053;28;20037;-69
2022/03/20 09:08:15;;;;;;;37.47;23.75;;;8.00;78.60;;;;;;5027491;28;20477;-69
2022/03/20 09:10:41;;;;;;;39.17;25.23;;;8.20;78.70;;;;;;5059179;28;20082;-69
2022/03/20 09:13:07;;;;;;;38.58;25.10;;;8.20;77.20;;;;;;5048139;28;20245;-69
2022/03/20 09:15:32;;;;;;;40.70;25.33;;;8.30;77.90;;;;;;5048293;28;20032;-68
2022/03/20 09:20:45;;;;;;;36.03;24.45;;;8.50;77.90;;;;;;5029994;28;20508;-69
2022/03/20 09:23:12;;;;;;;40.05;24.65;;;8.60;77.30;;;;;;5039604;28;20044;-69
2022/03/20 09:25:39;;;;;;;39.25;25.42;;;8.80;76.90;;;;;;5025462;28;20321;-69
2022/03/20 09:28:06;;;;;;;41.53;24.98;;;8.90;76.00;;;;;;5037093;28;20045;-69
2022/03/20 09:30:33;;;;;;;38.28;24.90;;;9.00;76.10;;;;;;5035044;28;20041;-69
2022/03/20 09:33:01;;;;;;;40.00;24.55;;;9.00;75.50;;;;;;5026830;28;20044;-69
2022/03/20 09:35:27;;;;;;;38.88;24.52;;;9.10;76.20;;;;;;5047373;28;20052;-69
2022/03/20 09:37:52;;;;;;;39.58;24.63;;;9.30;76.80;;;;;;5054953;28;20030;-69
2022/03/20 09:40:22;;;;;;;38.70;24.60;;;9.50;85.20;;;;;;5027177;28;20477;-69
2022/03/20 09:42:48;;;;;;;39.05;23.60;;;9.60;84.00;;;;;;5048551;28;20426;-69
2022/03/20 09:45:17;;;;;;;38.78;24.98;;;9.70;83.90;;;;;;5042648;28;20033;-69
2022/03/20 09:47:43;;;;;;;38.17;24.80;;;9.70;85.10;;;;;;5037830;28;20393;-69
2022/03/20 09:50:10;;;;;;;38.35;24.38;;;9.70;84.30;;;;;;5049180;28;20516;-69
2022/03/20 09:52:37;;;;;;;37.40;25.15;;;9.60;83.90;;;;;;5047841;28;20570;-70
2022/03/20 09:55:04;;;;;;;40.08;24.77;;;9.70;84.80;;;;;;5035515;28;20396;-69
2022/03/20 09:57:31;;;;;;;38.15;24.45;;;9.80;83.70;;;;;;5039961;28;20167;-69
2022/03/20 09:59:57;;;;;;;35.97;24.15;;;9.90;82.50;;;;;;5034897;28;20090;-70
2022/03/20 10:02:27;;;;;;;37.85;24.98;;;10.00;83.20;;;;;;5051625;28;20501;-69
2022/03/20 10:05:04;;;;;;;39.15;24.05;;;10.10;82.50;;;;;;5048080;28;20025;-69
2022/03/20 10:07:33;;;;;;;37.63;24.70;;;10.10;82.70;;;;;;5061985;28;20025;-69
2022/03/20 10:10:32;;;;;;;37.10;24.30;;;10.30;82.90;;;;;;5041810;28;20041;-69
2022/03/20 10:13:00;;;;;;;37.13;24.40;;;10.40;80.70;;;;;;5035272;28;20107;-69
2022/03/20 10:15:42;;;;;;;37.92;24.23;;;10.60;75.90;;;;;;5024406;28;20037;-69
2022/03/20 10:18:20;;;;;;;36.15;23.85;;;;;;;;;;5024588;28;20090;-65
2022/03/20 10:20:48;;;;;;;36.95;24.65;;;10.50;71.60;;;;;;5035566;28;20036;-65
2022/03/20 10:23:46;;;;;;;37.35;24.75;;;10.60;70.80;;;;;;5037137;28;20133;-66
2022/03/20 10:26:14;;;;;;;35.17;24.20;;;10.70;70.90;;;;;;4991660;28;20034;-69
2022/03/20 10:28:43;;;;;;;42.58;24.85;;;10.80;71.40;;;;;;5025572;28;20471;-69
2022/03/20 10:31:18;;;;;;;37.83;25.27;;;10.80;70.60;;;;;;5028548;28;20055;-69
2022/03/20 10:33:48;;;;;;;37.40;24.23;;;10.80;70.20;;;;;;5027741;28;20025;-69
2022/03/20 10:36:16;;;;;;;39.00;24.88;;;10.80;69.30;;;;;;5046048;28;20148;-69
2022/03/20 10:38:46;;;;;;;35.65;23.55;;;10.90;69.50;;;;;;5029868;28;20139;-69
2022/03/20 10:41:27;;;;;;;37.60;25.10;;;10.90;69.50;;;;;;5029111;28;20026;-69
2022/03/20 10:43:54;;;;;;;35.25;24.35;;;11.00;68.80;;;;;;5041277;28;20334;-70
2022/03/20 10:46:28;;;;;;;36.83;24.60;;;11.00;69.20;;;;;;5039981;28;20095;-70
2022/03/20 10:49:00;;;;;;;39.42;24.35;;;11.10;70.50;;;;;;5058614;28;20021;-70
2022/03/20 10:51:59;;;;;;;36.50;24.52;;;11.20;69.10;;;;;;5048734;28;20492;-69
2022/03/20 10:54:42;;;;;;;39.33;23.92;;;11.20;67.00;;;;;;5038678;28;20375;-69
2022/03/20 10:57:08;;;;;;;36.40;24.52;;;11.20;68.50;;;;;;5041374;28;20037;-69
2022/03/20 10:59:34;;;;;;;36.80;23.58;;;11.30;69.30;;;;;;5041793;28;20029;-69
2022/03/20 11:02:02;;;;;;;35.78;24.48;;;11.40;68.30;;;;;;5048628;28;20025;-69
2022/03/20 11:04:28;;;;;;;33.95;23.55;;;11.50;68.10;;;;;;5038326;28;20071;-69
2022/03/20 11:06:54;;;;;;;37.67;24.52;;;11.50;68.10;;;;;;5029779;28;20021;-69
2022/03/20 11:09:21;;;;;;;37.45;24.20;;;11.50;67.20;;;;;;5029244;28;20026;-69
2022/03/20 11:11:50;;;;;;;34.58;24.08;;;11.50;67.80;;;;;;5037935;28;20033;-69
2022/03/20 11:14:18;;;;;;;36.95;24.70;;;11.60;68.00;;;;;;5037865;28;20025;-69
2022/03/20 11:17:09;;;;;;;37.00;23.58;;;11.80;69.10;;;;;;5030298;28;20025;-69
2022/03/20 11:19:37;;;;;;;35.38;23.60;;;11.90;66.60;;;;;;5048794;28;20040;-69
2022/03/20 11:22:05;;;;;;;35.90;24.25;;;11.90;67.10;;;;;;5048080;28;20100;-69
2022/03/20 11:24:32;;;;;;;37.22;24.77;;;12.00;67.70;;;;;;5031627;28;20022;-69
2022/03/20 11:27:01;;;;;;;34.40;23.15;;;12.10;67.40;;;;;;5044319;28;20029;-70
2022/03/20 11:29:30;;;;;;;35.53;23.50;;;12.10;66.50;;;;;;5034638;28;20408;-69
2022/03/20 11:31:59;;;;;;;35.65;23.83;;;12.20;65.10;;;;;;5028533;28;20517;-69
2022/03/20 11:34:26;;;;;;;36.72;24.27;;;12.30;65.60;;;;;;5029665;28;20021;-69
2022/03/20 11:37:01;;;;;;;38.15;24.50;;;12.40;66.90;;;;;;5048509;28;20056;-69
2022/03/20 11:39:26;;;;;;;35.40;23.92;;;12.30;64.40;;;;;;5033037;28;20087;-69
2022/03/20 11:42:24;;;;;;;35.83;23.80;;;12.30;64.40;;;;;;5028801;28;20116;-69
2022/03/20 11:44:53;;;;;;;33.58;23.58;;;12.30;64.30;;;;;;5027520;28;20485;-70
2022/03/20 11:47:21;;;;;;;37.38;24.23;;;12.40;65.90;;;;;;5044188;28;20249;-69
2022/03/20 11:50:17;;;;;;;36.60;23.23;;;12.50;65.20;;;;;;5048269;28;20491;-70
2022/03/20 11:52:48;;;;;;;32.15;22.13;;;12.70;65.50;;;;;;5035470;28;20037;-70
2022/03/20 11:55:35;;;;;;;33.63;23.98;;;12.80;65.10;;;;;;5039961;28;20017;-70
2022/03/20 11:58:24;;;;;;;34.78;24.55;;;12.90;65.20;;;;;;5028327;28;20021;-69
2022/03/20 12:01:06;;;;;;;34.75;23.38;;;13.00;62.50;;;;;;5028676;28;20512;-70
2022/03/20 12:03:37;;;;;;;33.13;22.75;;;12.90;62.40;;;;;;5033016;28;20021;-70
2022/03/20 12:06:24;;;;;;;32.88;23.27;;;13.00;64.50;;;;;;5040132;28;20485;-70
2022/03/20 12:08:58;;;;;;;32.75;22.40;;;13.20;64.40;;;;;;5031469;28;20079;-70
2022/03/20 12:11:45;;;;;;;33.28;23.05;;;13.40;64.10;;;;;;5035432;28;20052;-70
2022/03/20 12:14:22;;;;;;;33.90;22.77;;;13.40;62.30;;;;;;5038781;28;20488;-70
2022/03/20 12:16:48;;;;;;;32.65;22.92;;;13.60;64.50;;;;;;5046289;28;20514;-70
2022/03/20 12:19:22;;;;;;;33.35;22.52;;;13.80;65.40;;;;;;5039377;28;20033;-70
2022/03/20 12:22:00;;;;;;;32.38;23.13;;;13.80;61.70;;;;;;5047481;28;20039;-70
2022/03/20 12:24:54;;;;;;;32.55;23.92;;;13.70;61.00;;;;;;5045379;28;20021;-70
2022/03/20 12:27:20;;;;;;;33.92;23.17;;;13.70;61.90;;;;;;5047121;28;20032;-70
2022/03/20 12:29:49;;;;;;;30.33;21.58;;;13.80;62.40;;;;;;5037573;28;20125;-69
2022/03/20 12:32:15;;;;;;;35.25;23.35;;;14.00;63.00;;;;;;5027923;28;20448;-70
2022/03/20 12:35:03;;;;;;;34.42;23.15;;;14.10;60.60;;;;;;5025479;28;20030;-70
2022/03/20 12:37:33;;;;;;;33.47;23.55;;;14.20;60.10;;;;;;5030433;28;20025;-70
2022/03/20 12:40:23;;;;;;;33.17;22.48;;;14.10;59.50;;;;;;5047270;28;20560;-70
2022/03/20 12:43:13;;;;;;;34.78;23.48;;;14.00;61.20;;;;;;5046414;28;20036;-70
2022/03/20 12:45:47;;;;;;;32.83;23.15;;;14.00;61.00;;;;;;5025912;28;20029;-70
2022/03/20 12:48:15;;;;;;;32.28;22.20;;;14.10;59.90;;;;;;5041677;28;20028;-70
2022/03/20 12:50:46;;;;;;;30.77;21.65;;;14.10;61.40;;;;;;5046379;28;20025;-70
2022/03/20 12:53:21;;;;;;;29.73;21.60;;;14.00;61.10;;;;;;5037972;28;20305;-70
2022/03/20 12:55:58;;;;;;;32.50;23.17;;;14.10;61.10;;;;;;5042291;28;20025;-70
2022/03/20 12:58:24;;;;;;;33.80;22.15;;;14.20;59.70;;;;;;5040571;28;20107;-69
2022/03/20 13:00:52;;;;;;;34.05;23.15;;;14.10;59.50;;;;;;5031649;28;20096;-70
2022/03/20 13:03:19;;;;;;;31.08;22.45;;;14.00;59.80;;;;;;5045980;28;20033;-70
2022/03/20 13:05:45;;;;;;;30.05;21.40;;;14.20;60.70;;;;;;5045107;28;20439;-70
2022/03/20 13:08:18;;;;;;;31.55;22.13;;;14.30;60.30;;;;;;5040757;28;20021;-70
2022/03/20 13:10:43;;;;;;;;;;;14.40;60.50;;;;;;5037211;28;20029;-70
2022/03/20 13:13:09;;;;;;;32.83;22.38;;;14.50;59.80;;;;;;5034279;28;20432;-70
2022/03/20 13:15:37;;;;;;;32.08;21.15;;;14.70;60.00;;;;;;5033558;28;20249;-70
2022/03/20 13:18:05;;;;;;;29.95;21.27;;;14.80;59.90;;;;;;5041840;28;20112;-73
2022/03/20 13:20:33;;;;;;;29.95;21.23;;;14.90;59.90;;;;;;5032825;28;20119;-73
2022/03/20 13:23:22;;;;;;;35.67;22.02;;;15.10;58.90;;;;;;5044335;28;20457;-74
2022/03/20 13:25:51;;;;;;;32.45;21.08;;;15.10;59.00;;;;;;5034255;28;20484;-74
2022/03/20 13:28:40;;;;;;;30.90;20.50;;;15.20;58.60;;;;;;5042529;28;20049;-73
2022/03/20 13:31:20;;;;;;;31.88;21.75;;;15.20;57.90;;;;;;5040659;28;20040;-73
2022/03/20 13:34:00;;;;;;;30.63;21.13;;;15.20;57.70;;;;;;5047594;28;20016;-73
2022/03/20 13:36:36;;;;;;;30.08;21.40;;;15.20;57.80;;;;;;5047111;28;20047;-73
2022/03/20 13:39:09;;;;;;;31.02;20.42;;;15.20;57.50;;;;;;5041576;28;20107;-72
2022/03/20 13:41:40;;;;;;;28.55;20.73;;;15.30;58.30;;;;;;5055703;28;20029;-72
2022/03/20 13:44:08;;;;;;;31.55;22.08;;;15.40;58.80;;;;;;5039654;28;20036;-72
2022/03/20 13:46:35;;;;;;;28.55;20.63;;;15.60;58.80;;;;;;5047664;28;20037;-72
2022/03/20 13:49:03;;;;;;;35.90;21.63;;;15.70;57.70;;;;;;5046180;28;20029;-72
2022/03/20 13:51:30;;;;;;;29.17;20.77;;;15.70;57.60;;;;;;5052104;28;20031;-72
2022/03/20 13:54:17;;;;;;;30.45;21.65;;;15.70;57.40;;;;;;5041431;28;20026;-72
2022/03/20 13:56:45;;;;;;;30.85;21.05;;;15.60;57.00;;;;;;5040711;28;20513;-72
2022/03/20 13:59:12;;;;;;;30.55;20.38;;;15.40;58.50;;;;;;5045232;28;20032;-72
2022/03/20 14:01:49;;;;;;;32.75;21.17;;;15.50;59.60;;;;;;5044816;28;20051;-72
2022/03/20 14:04:22;;;;;;;29.67;20.65;;;15.60;58.70;;;;;;5044637;28;20025;-72
2022/03/20 14:06:54;;;;;;;30.77;21.60;;;15.70;57.90;;;;;;5046727;28;20476;-72
2022/03/20 14:09:31;;;;;;;29.98;21.48;;;15.70;57.90;;;;;;5055279;28;20056;-72
2022/03/20 14:11:57;;;;;;;30.67;20.67;;;15.80;57.60;;;;;;5046670;28;20040;-72
2022/03/20 14:14:45;;;;;;;30.33;21.30;;;15.70;57.00;;;;;;5041750;28;20491;-72